LOWS

Salzburg Airport

Salzburg, Austria
METAR LOWS 212220Z AUTO 18004KT 9999 NSC 15/09 Q1018
Observed Flight Rules
Apr-21 @ 22:20 UTC (18 minutes ago) Visual Flight Rules
Wind Visibility Clouds
180° at 4 knots 10,000+ meters
  • Clear skies
Temperatures Readings
Current 15°C / 59°F
Dewpoint 9°C / 48°F
Humidity 68%
Altimeter 30.06" Hg
Pressure 1018 hPa
Elevation 430
METAR LOWS 212220Z AUTO 18004KT 9999 NSC 15/09 Q1018
Observed Flight Rules
Apr-21 @ 22:20 UTC
(18 minutes ago)
VFR
Wind Visibility
180° at 4 knots 10,000+ meters
Clouds
  • Clear skies
Temperature Dewpoint
15°C / 59°F 9°C / 48°F
Humidity Altimeter Pressure
68% 30.06" Hg 1018 hPa